Time;durP1;ratioP1;P1;durP2;ratioP2;P2;SDS_P1;SDS_P2;PMS_P1;PMS_P2;Temp;Humidity;BMP_temperature;BMP_pressure;BME280_temperature;BME280_humidity;BME280_pressure;Samples;Min_cycle;Max_cycle;Signal;HPM_P1;HPM_P2
2023/04/12 00:00:54;;;;;;;8.45;3.70;;;8.70;99.90;;;;;;6033475;23;20612;-67
2023/04/12 00:03:21;;;;;;;5.47;3.70;;;8.70;99.90;;;;;;6030476;23;20287;-67
2023/04/12 00:05:53;;;;;;;5.70;3.33;;;8.70;99.90;;;;;;6032273;23;20224;-67
2023/04/12 00:08:23;;;;;;;5.20;3.55;;;8.80;99.90;;;;;;6026400;23;20685;-68
2023/04/12 00:10:51;;;;;;;6.70;3.85;;;8.80;99.90;;;;;;6031204;23;20239;-69
2023/04/12 00:13:18;;;;;;;5.80;4.30;;;8.80;99.90;;;;;;6021894;23;20197;-69
2023/04/12 00:15:45;;;;;;;7.00;4.32;;;8.70;99.90;;;;;;6026711;23;21219;-68
2023/04/12 00:18:14;;;;;;;5.50;3.35;;;8.70;99.90;;;;;;6030741;23;20216;-68
2023/04/12 00:20:41;;;;;;;6.40;3.80;;;8.70;99.90;;;;;;6029714;23;20238;-68
2023/04/12 00:23:11;;;;;;;7.30;3.60;;;8.70;99.90;;;;;;6031034;23;20192;-69
2023/04/12 00:25:39;;;;;;;5.82;4.15;;;8.70;99.90;;;;;;6033631;23;20244;-69
2023/04/12 00:28:06;;;;;;;3.55;2.85;;;8.70;99.90;;;;;;6031520;23;20200;-69
2023/04/12 00:30:33;;;;;;;5.30;3.55;;;8.80;99.90;;;;;;6029969;23;20287;-68
2023/04/12 00:33:00;;;;;;;5.57;3.00;;;8.80;99.90;;;;;;6032510;23;20184;-69
2023/04/12 00:35:29;;;;;;;4.68;3.10;;;8.80;99.90;;;;;;6030427;23;20193;-69
2023/04/12 00:37:56;;;;;;;3.88;2.70;;;8.90;99.90;;;;;;6031641;23;20595;-68
2023/04/12 00:40:23;;;;;;;4.35;3.53;;;8.90;99.90;;;;;;6031001;23;20216;-68
2023/04/12 00:42:50;;;;;;;7.07;2.72;;;9.00;99.90;;;;;;6032010;23;20203;-69
2023/04/12 00:45:17;;;;;;;5.35;2.35;;;9.00;99.90;;;;;;6031108;23;20216;-68
2023/04/12 00:47:44;;;;;;;4.60;2.60;;;9.00;99.90;;;;;;6031253;23;20189;-69
2023/04/12 00:50:12;;;;;;;3.85;1.80;;;9.10;99.90;;;;;;6034465;23;20247;-70
2023/04/12 00:52:40;;;;;;;3.83;1.90;;;9.00;99.90;;;;;;6030819;23;20192;-69
2023/04/12 00:55:09;;;;;;;3.92;2.05;;;9.00;99.90;;;;;;6031531;23;20203;-68
2023/04/12 00:57:37;;;;;;;3.58;1.90;;;8.90;99.90;;;;;;6031726;23;20588;-69
2023/04/12 01:00:07;;;;;;;2.80;1.80;;;8.80;99.90;;;;;;6030002;23;20294;-69
2023/04/12 01:02:37;;;;;;;3.65;2.15;;;8.80;99.90;;;;;;6032330;23;20225;-69
2023/04/12 01:05:07;;;;;;;3.40;1.90;;;8.70;99.90;;;;;;6029849;23;20234;-69
2023/04/12 01:07:45;;;;;;;3.60;2.10;;;8.60;99.90;;;;;;6034021;23;20189;-68
2023/04/12 01:10:29;;;;;;;6.03;2.13;;;8.50;99.90;;;;;;6030371;23;20319;-68
2023/04/12 01:13:06;;;;;;;7.90;2.40;;;8.50;99.90;;;;;;6023783;23;20650;-68
2023/04/12 01:15:37;;;;;;;5.28;2.33;;;8.40;99.90;;;;;;6022765;23;20190;-70
2023/04/12 01:18:09;;;;;;;6.28;2.60;;;8.30;99.90;;;;;;6033219;23;20222;-70
2023/04/12 01:20:47;;;;;;;5.30;2.72;;;8.30;99.90;;;;;;6028447;23;20236;-70
2023/04/12 01:23:53;;;;;;;3.80;2.15;;;8.20;99.90;;;;;;6029429;23;20191;-70
2023/04/12 01:26:33;;;;;;;4.75;2.50;;;8.10;99.90;;;;;;5985758;23;20226;-69
2023/04/12 01:29:04;;;;;;;5.05;2.60;;;8.10;99.90;;;;;;6029230;23;20230;-71
2023/04/12 01:31:32;;;;;;;3.42;2.50;;;8.00;99.90;;;;;;6023783;23;20566;-71
2023/04/12 01:34:00;;;;;;;2.65;2.45;;;8.00;99.90;;;;;;6027493;23;20271;-68
2023/04/12 01:36:29;;;;;;;4.40;2.85;;;7.90;99.90;;;;;;6038769;23;20257;-69
2023/04/12 01:38:57;;;;;;;6.32;3.10;;;7.90;99.90;;;;;;6030391;23;20201;-69
2023/04/12 01:41:24;;;;;;;5.30;2.55;;;7.80;99.90;;;;;;6030475;23;20767;-69
2023/04/12 01:43:51;;;;;;;5.85;3.28;;;7.80;99.90;;;;;;6031381;23;20663;-68
2023/04/12 01:46:23;;;;;;;4.57;2.53;;;7.70;99.90;;;;;;6031552;23;20251;-68
2023/04/12 01:48:53;;;;;;;6.07;2.92;;;7.70;99.90;;;;;;6039015;23;20188;-69
2023/04/12 01:51:31;;;;;;;4.72;2.85;;;7.60;99.90;;;;;;6032566;23;20306;-68
2023/04/12 01:54:02;;;;;;;5.07;2.58;;;7.60;99.90;;;;;;6033005;23;20286;-68
2023/04/12 01:56:34;;;;;;;5.03;2.58;;;7.60;99.90;;;;;;6030131;23;20196;-68
2023/04/12 01:59:03;;;;;;;7.88;3.53;;;7.60;99.90;;;;;;6031905;23;20591;-69
2023/04/12 02:01:31;;;;;;;4.68;2.72;;;7.50;99.90;;;;;;6032521;23;20212;-69
2023/04/12 02:04:00;;;;;;;3.70;2.40;;;7.60;99.90;;;;;;6033776;23;20193;-69
2023/04/12 02:06:27;;;;;;;7.78;3.22;;;7.60;99.90;;;;;;6032079;23;20625;-69
2023/04/12 02:08:58;;;;;;;4.75;2.70;;;7.60;99.90;;;;;;6028357;23;20194;-71
2023/04/12 02:11:25;;;;;;;5.78;3.60;;;7.50;99.90;;;;;;6029935;23;20207;-69
2023/04/12 02:13:52;;;;;;;4.70;2.90;;;7.50;99.90;;;;;;6033206;23;20231;-68
2023/04/12 02:16:21;;;;;;;5.72;3.20;;;7.50;99.90;;;;;;6030607;23;20197;-69
2023/04/12 02:18:50;;;;;;;6.57;3.08;;;7.50;99.90;;;;;;6031299;23;20189;-68
2023/04/12 02:21:17;;;;;;;4.07;3.00;;;7.40;99.90;;;;;;6026034;23;20215;-69
2023/04/12 02:23:45;;;;;;;4.53;2.53;;;7.40;99.90;;;;;;6032925;23;20190;-68
2023/04/12 02:26:12;;;;;;;5.60;3.60;;;7.50;99.90;;;;;;6026161;23;20219;-68
2023/04/12 02:28:39;;;;;;;5.38;3.50;;;7.40;99.90;;;;;;6035011;23;20193;-68
2023/04/12 02:31:07;;;;;;;6.53;3.47;;;7.40;99.90;;;;;;6031689;23;20216;-69
2023/04/12 02:33:34;;;;;;;5.30;3.72;;;7.40;99.90;;;;;;6033261;23;20298;-69
2023/04/12 02:36:03;;;;;;;4.07;2.88;;;7.40;99.90;;;;;;6030985;23;20587;-69
2023/04/12 02:38:30;;;;;;;4.13;3.40;;;7.40;99.90;;;;;;6023726;23;20228;-69
2023/04/12 02:40:57;;;;;;;4.88;3.65;;;7.40;99.90;;;;;;6028670;23;20214;-69
2023/04/12 02:43:24;;;;;;;7.53;3.42;;;7.40;99.90;;;;;;6030608;23;20241;-69
2023/04/12 02:45:51;;;;;;;5.25;3.88;;;7.40;99.90;;;;;;6031976;23;20321;-69
2023/04/12 02:48:18;;;;;;;7.00;3.70;;;7.50;99.90;;;;;;6032937;23;20182;-69
2023/04/12 02:50:45;;;;;;;3.92;3.20;;;7.30;99.90;;;;;;6018480;23;20207;-69
2023/04/12 02:53:16;;;;;;;4.70;3.35;;;7.30;99.90;;;;;;6031811;23;20190;-69
2023/04/12 02:55:43;;;;;;;7.25;3.83;;;7.30;99.90;;;;;;6029226;23;20631;-69
2023/04/12 02:58:11;;;;;;;10.38;4.22;;;7.30;99.90;;;;;;6031457;23;20182;-69
2023/04/12 03:00:38;;;;;;;7.10;4.32;;;7.30;99.90;;;;;;6031257;23;20214;-69
2023/04/12 03:03:07;;;;;;;7.63;4.68;;;7.30;99.90;;;;;;6031931;23;20197;-69
2023/04/12 03:05:35;;;;;;;6.45;4.80;;;7.30;99.90;;;;;;6028097;23;20245;-69
2023/04/12 03:08:02;;;;;;;5.47;4.43;;;7.30;99.90;;;;;;6030680;23;20194;-69
2023/04/12 03:10:30;;;;;;;6.38;5.20;;;7.30;99.90;;;;;;6032184;23;20229;-69
2023/04/12 03:12:57;;;;;;;7.43;5.13;;;7.30;99.90;;;;;;6030455;23;20274;-69
2023/04/12 03:15:26;;;;;;;6.85;5.00;;;7.30;99.90;;;;;;6031622;23;20187;-69
2023/04/12 03:17:53;;;;;;;10.05;5.72;;;7.20;99.90;;;;;;6028145;23;20248;-69
2023/04/12 03:20:23;;;;;;;6.22;4.80;;;7.20;99.90;;;;;;6029922;23;20289;-69
2023/04/12 03:22:50;;;;;;;7.05;5.20;;;7.10;99.90;;;;;;6031705;23;20320;-69
2023/04/12 03:25:17;;;;;;;5.90;4.72;;;7.10;99.90;;;;;;6032350;23;20218;-69
2023/04/12 03:27:46;;;;;;;8.00;4.82;;;7.10;99.90;;;;;;6032107;23;20190;-69
2023/04/12 03:30:14;;;;;;;7.28;5.00;;;7.10;99.90;;;;;;6029036;23;20207;-68
2023/04/12 03:32:42;;;;;;;4.60;4.20;;;7.10;99.90;;;;;;6036820;23;20186;-68
2023/04/12 03:35:10;;;;;;;8.63;4.50;;;7.10;99.90;;;;;;6032195;23;20590;-69
2023/04/12 03:37:40;;;;;;;8.80;5.22;;;7.10;99.90;;;;;;6033095;23;20198;-69
2023/04/12 03:40:08;;;;;;;9.32;4.72;;;7.10;99.90;;;;;;6032052;23;20286;-69
2023/04/12 03:42:35;;;;;;;6.97;4.55;;;7.00;99.90;;;;;;6032055;23;20194;-69
2023/04/12 03:45:05;;;;;;;6.88;5.20;;;7.00;99.90;;;;;;6031670;23;20309;-69
2023/04/12 03:47:33;;;;;;;7.97;5.18;;;7.00;99.90;;;;;;6032785;23;20191;-69
2023/04/12 03:50:05;;;;;;;6.07;5.47;;;7.00;99.90;;;;;;6026411;23;20707;-69
2023/04/12 03:52:32;;;;;;;5.53;5.00;;;7.00;99.90;;;;;;6033417;23;20764;-69
2023/04/12 03:54:59;;;;;;;7.90;5.65;;;7.30;99.90;;;;;;6033468;23;20527;-69
2023/04/12 03:57:27;;;;;;;9.13;6.20;;;7.00;99.90;;;;;;6030313;23;20252;-69
2023/04/12 03:59:54;;;;;;;9.30;5.57;;;7.30;99.90;;;;;;6032026;23;20221;-69
2023/04/12 04:02:22;;;;;;;6.85;5.20;;;7.00;99.90;;;;;;6031499;23;20205;-69
2023/04/12 04:04:49;;;;;;;6.70;5.53;;;6.90;99.90;;;;;;6031833;23;20650;-69
2023/04/12 04:07:16;;;;;;;6.40;4.80;;;6.90;99.90;;;;;;6029703;23;20214;-69
2023/04/12 04:09:43;;;;;;;5.93;5.22;;;6.90;99.90;;;;;;6031957;23;20302;-69
2023/04/12 04:12:10;;;;;;;8.02;5.20;;;6.90;99.90;;;;;;6035409;23;20188;-69
2023/04/12 04:14:37;;;;;;;7.68;5.25;;;6.90;99.90;;;;;;6033050;23;20282;-69
2023/04/12 04:17:04;;;;;;;9.40;5.40;;;6.90;99.90;;;;;;6030854;23;20191;-69
2023/04/12 04:19:33;;;;;;;7.57;5.25;;;6.90;99.90;;;;;;6029361;23;20211;-68
2023/04/12 04:22:00;;;;;;;6.57;5.07;;;6.90;99.90;;;;;;6027024;23;20302;-69
2023/04/12 04:24:28;;;;;;;5.47;4.90;;;6.90;99.90;;;;;;6029138;23;20542;-69
2023/04/12 04:26:55;;;;;;;5.43;4.65;;;7.00;99.90;;;;;;6032159;23;20686;-69
2023/04/12 04:29:22;;;;;;;6.68;5.55;;;6.90;99.90;;;;;;6032262;23;20268;-68
2023/04/12 04:31:49;;;;;;;6.15;5.55;;;6.90;99.90;;;;;;6032475;23;20186;-69
2023/04/12 04:34:17;;;;;;;5.85;5.30;;;6.90;99.90;;;;;;6030132;23;20190;-68
2023/04/12 04:36:46;;;;;;;6.28;5.00;;;6.90;99.90;;;;;;6032647;23;20195;-69
2023/04/12 04:39:13;;;;;;;6.68;5.03;;;6.90;99.90;;;;;;6029763;23;20189;-69
2023/04/12 04:41:40;;;;;;;6.15;5.55;;;6.90;99.90;;;;;;6028341;23;20594;-69
2023/04/12 04:44:09;;;;;;;6.97;4.90;;;7.00;99.90;;;;;;6028432;23;20199;-69
2023/04/12 04:46:36;;;;;;;6.88;5.22;;;7.00;99.90;;;;;;6028683;23;20693;-69
2023/04/12 04:49:04;;;;;;;5.57;5.00;;;7.00;99.90;;;;;;6029435;23;20586;-69
2023/04/12 04:51:31;;;;;;;6.78;5.07;;;7.00;99.90;;;;;;6030110;23;20193;-69
2023/04/12 04:54:01;;;;;;;7.10;5.13;;;7.00;99.90;;;;;;6028549;23;20206;-69
2023/04/12 04:56:28;;;;;;;6.60;5.57;;;7.00;99.90;;;;;;6028228;23;20320;-69
2023/04/12 04:58:55;;;;;;;6.80;5.80;;;7.10;99.90;;;;;;6035303;23;20282;-70
2023/04/12 05:01:26;;;;;;;7.38;4.47;;;7.10;99.90;;;;;;6030066;23;20238;-69
2023/04/12 05:03:54;;;;;;;6.50;4.75;;;7.10;99.90;;;;;;6029440;23;20290;-68
2023/04/12 05:06:21;;;;;;;6.38;5.30;;;7.10;99.90;;;;;;6029991;23;20290;-69
2023/04/12 05:08:48;;;;;;;11.05;5.05;;;7.10;99.90;;;;;;6020808;23;20195;-68
2023/04/12 05:11:17;;;;;;;7.30;6.00;;;7.10;99.90;;;;;;6017560;23;20209;-67
2023/04/12 05:13:44;;;;;;;5.05;4.55;;;7.10;99.90;;;;;;6025804;23;20196;-68
2023/04/12 05:16:11;;;;;;;5.38;4.80;;;7.00;99.90;;;;;;6032256;23;20193;-69
2023/04/12 05:18:38;;;;;;;5.85;5.10;;;7.00;99.90;;;;;;6028942;23;20678;-69
2023/04/12 05:21:06;;;;;;;6.18;5.07;;;7.00;99.90;;;;;;6031248;23;20211;-74
2023/04/12 05:23:36;;;;;;;6.07;4.50;;;7.00;99.90;;;;;;6026398;23;20255;-76
2023/04/12 05:26:03;;;;;;;6.68;4.82;;;7.00;99.90;;;;;;6022706;23;20216;-70
2023/04/12 05:28:31;;;;;;;5.80;5.13;;;7.10;99.90;;;;;;6028278;23;20270;-70
2023/04/12 05:30:59;;;;;;;5.50;5.00;;;7.00;99.90;;;;;;6030624;23;20579;-70
2023/04/12 05:33:25;;;;;;;8.20;5.22;;;7.00;99.90;;;;;;6030557;23;20186;-70
2023/04/12 05:35:53;;;;;;;5.93;5.07;;;7.00;99.90;;;;;;6023192;23;20241;-70
2023/04/12 05:38:20;;;;;;;5.80;4.80;;;7.00;99.90;;;;;;6024217;23;20642;-70
2023/04/12 05:40:48;;;;;;;5.15;4.60;;;7.00;99.90;;;;;;6031735;23;20210;-70
2023/04/12 05:43:16;;;;;;;6.45;4.80;;;7.00;99.90;;;;;;6031165;23;20265;-70
2023/04/12 05:45:44;;;;;;;5.88;4.82;;;6.90;99.90;;;;;;6029443;23;20194;-70
2023/04/12 05:48:12;;;;;;;5.63;5.05;;;6.90;99.90;;;;;;6033273;23;20248;-70
2023/04/12 05:50:39;;;;;;;5.60;4.97;;;7.00;99.90;;;;;;6028495;23;22114;-71
2023/04/12 05:53:07;;;;;;;7.85;5.00;;;7.00;99.90;;;;;;6026665;23;20194;-70
2023/04/12 05:55:34;;;;;;;6.75;4.97;;;6.90;99.90;;;;;;6024949;23;20202;-70
2023/04/12 05:58:01;;;;;;;7.90;5.32;;;7.00;99.90;;;;;;6030095;23;20190;-70
2023/04/12 06:00:28;;;;;;;9.30;5.72;;;7.00;99.90;;;;;;6026778;23;20213;-70
2023/04/12 06:02:58;;;;;;;7.32;5.82;;;7.00;99.90;;;;;;6018425;23;20213;-69
2023/04/12 06:05:25;;;;;;;6.88;4.90;;;7.00;99.90;;;;;;6014800;23;20188;-70
2023/04/12 06:07:52;;;;;;;8.13;5.88;;;7.10;99.90;;;;;;6022524;23;20681;-70
2023/04/12 06:10:19;;;;;;;6.55;5.88;;;7.10;99.90;;;;;;6021491;23;20211;-69
2023/04/12 06:12:47;;;;;;;5.65;5.05;;;7.10;99.90;;;;;;6025195;23;20198;-69
2023/04/12 06:15:14;;;;;;;8.43;6.35;;;7.10;99.90;;;;;;6017656;23;20579;-70
2023/04/12 06:17:41;;;;;;;6.78;5.88;;;7.10;99.90;;;;;;6027978;23;20586;-69
2023/04/12 06:20:11;;;;;;;6.90;6.20;;;7.20;99.90;;;;;;6030194;23;20658;-69
2023/04/12 06:22:38;;;;;;;6.80;5.72;;;7.20;99.90;;;;;;6023722;23;20494;-69
2023/04/12 06:25:06;;;;;;;6.90;6.20;;;7.20;99.90;;;;;;6021537;23;20654;-69
2023/04/12 06:27:34;;;;;;;9.45;6.45;;;7.20;99.90;;;;;;6021190;23;20219;-69
2023/04/12 06:30:00;;;;;;;7.38;6.07;;;7.20;99.90;;;;;;6027750;23;20764;-70
2023/04/12 06:32:28;;;;;;;6.50;5.38;;;7.20;99.90;;;;;;6022332;23;20193;-69
2023/04/12 06:34:55;;;;;;;6.90;6.20;;;7.20;99.90;;;;;;6027493;23;20192;-69
2023/04/12 06:37:23;;;;;;;7.10;6.50;;;7.30;99.90;;;;;;6024656;23;20187;-69
2023/04/12 06:39:51;;;;;;;8.45;6.03;;;7.30;99.90;;;;;;6025749;23;20210;-70
2023/04/12 06:42:18;;;;;;;7.85;7.05;;;7.20;99.90;;;;;;6026133;23;20184;-69
2023/04/12 06:44:45;;;;;;;6.38;5.63;;;7.30;99.90;;;;;;6029935;23;20595;-72
2023/04/12 06:47:12;;;;;;;7.25;5.50;;;7.30;99.90;;;;;;6020552;23;20293;-70
2023/04/12 06:49:39;;;;;;;5.82;5.32;;;7.30;99.90;;;;;;6018439;23;20218;-71
2023/04/12 06:52:06;;;;;;;6.55;5.72;;;7.40;99.90;;;;;;6027829;23;20219;-69
2023/04/12 06:54:36;;;;;;;7.45;6.00;;;7.40;99.90;;;;;;6025476;23;20632;-70
2023/04/12 06:57:03;;;;;;;5.97;5.38;;;7.50;99.90;;;;;;6027178;23;20249;-70
2023/04/12 06:59:30;;;;;;;7.88;6.10;;;7.50;99.90;;;;;;6030724;23;20215;-71
2023/04/12 07:01:57;;;;;;;6.05;5.40;;;7.50;99.90;;;;;;6031479;23;20197;-71
2023/04/12 07:04:24;;;;;;;6.18;5.03;;;7.60;99.90;;;;;;6027764;23;20543;-71
2023/04/12 07:06:51;;;;;;;5.00;4.55;;;7.60;99.90;;;;;;6017842;23;20214;-70
2023/04/12 07:09:18;;;;;;;4.38;3.78;;;7.70;99.90;;;;;;6012823;23;20651;-70
2023/04/12 07:11:47;;;;;;;4.38;3.53;;;7.80;99.90;;;;;;6021265;23;20195;-70
2023/04/12 07:14:14;;;;;;;3.70;2.90;;;7.80;99.90;;;;;;6029784;23;20189;-70
2023/04/12 07:16:42;;;;;;;4.13;3.83;;;7.80;99.90;;;;;;6023175;23;20566;-69
2023/04/12 07:19:09;;;;;;;3.63;3.28;;;8.20;99.90;;;;;;6029748;23;20574;-70
2023/04/12 07:21:36;;;;;;;3.55;3.22;;;8.00;99.90;;;;;;6022804;23;20264;-69
2023/04/12 07:24:04;;;;;;;3.28;3.00;;;8.00;99.90;;;;;;6030945;23;20295;-69
2023/04/12 07:26:31;;;;;;;3.40;3.00;;;8.10;99.90;;;;;;6032719;23;20631;-69
2023/04/12 07:28:59;;;;;;;3.40;3.10;;;8.00;99.90;;;;;;6020484;23;20658;-69
2023/04/12 07:31:29;;;;;;;4.88;2.72;;;8.10;99.90;;;;;;6027564;23;20211;-69
2023/04/12 07:33:56;;;;;;;3.72;3.00;;;8.10;99.90;;;;;;6026618;23;20253;-70
2023/04/12 07:36:23;;;;;;;4.65;2.70;;;8.10;99.90;;;;;;6028042;23;20194;-70
2023/04/12 07:38:54;;;;;;;2.90;2.70;;;8.20;99.90;;;;;;6026548;23;20227;-70
2023/04/12 07:41:21;;;;;;;2.30;2.10;;;8.20;99.90;;;;;;6022962;23;20192;-70
2023/04/12 07:43:49;;;;;;;2.78;2.53;;;8.20;99.90;;;;;;6021186;23;20531;-70
2023/04/12 07:46:17;;;;;;;3.20;2.90;;;8.30;99.90;;;;;;6025960;23;20203;-69
2023/04/12 07:48:44;;;;;;;4.75;3.22;;;8.30;99.90;;;;;;6031162;23;20721;-70
2023/04/12 07:51:11;;;;;;;3.83;3.42;;;8.40;99.90;;;;;;6001338;23;20190;-70
2023/04/12 07:53:40;;;;;;;3.00;2.70;;;8.40;99.90;;;;;;6000885;23;20193;-70
2023/04/12 07:56:08;;;;;;;4.18;2.88;;;8.40;99.90;;;;;;5997496;23;20196;-69
2023/04/12 07:58:35;;;;;;;3.38;2.53;;;8.50;99.90;;;;;;5999949;23;20832;-70
2023/04/12 08:01:02;;;;;;;4.38;3.10;;;8.70;99.90;;;;;;5996432;23;20240;-70
2023/04/12 08:03:31;;;;;;;3.85;3.45;;;8.50;99.90;;;;;;5998537;23;20200;-70
2023/04/12 08:05:59;;;;;;;4.95;3.72;;;8.50;99.90;;;;;;5989329;23;20184;-69
2023/04/12 08:08:26;;;;;;;3.38;3.08;;;8.60;99.90;;;;;;5998691;23;20225;-71
2023/04/12 08:10:53;;;;;;;3.60;3.28;;;8.60;99.90;;;;;;6000616;23;20699;-70
2023/04/12 08:13:20;;;;;;;3.50;3.20;;;8.60;99.90;;;;;;6005055;23;20188;-69
2023/04/12 08:15:47;;;;;;;3.50;3.20;;;8.70;99.90;;;;;;5973493;23;20682;-70
2023/04/12 08:18:15;;;;;;;3.67;3.10;;;8.70;99.90;;;;;;5975784;23;20288;-69
2023/04/12 08:20:43;;;;;;;3.33;3.03;;;8.80;99.90;;;;;;5996168;23;20882;-69
2023/04/12 08:23:11;;;;;;;3.97;3.30;;;8.80;99.90;;;;;;6001027;23;20220;-70
2023/04/12 08:25:38;;;;;;;3.95;3.55;;;8.80;99.90;;;;;;5993353;23;20220;-71
2023/04/12 08:28:07;;;;;;;3.65;3.35;;;8.90;99.90;;;;;;5998345;23;20307;-79
2023/04/12 08:30:34;;;;;;;4.22;3.83;;;8.80;99.90;;;;;;5998538;23;20237;-70
2023/04/12 08:33:02;;;;;;;4.45;3.90;;;8.80;99.90;;;;;;6003656;23;20189;-70
2023/04/12 08:35:29;;;;;;;3.80;3.50;;;8.80;99.90;;;;;;5997335;23;20248;-71
2023/04/12 08:37:57;;;;;;;4.03;3.72;;;8.80;99.90;;;;;;6002580;23;20259;-71
2023/04/12 08:40:25;;;;;;;4.35;3.42;;;8.90;99.90;;;;;;6012174;23;20235;-70
2023/04/12 08:42:53;;;;;;;3.75;3.40;;;8.90;99.90;;;;;;6000698;23;20184;-70
2023/04/12 08:45:23;;;;;;;5.68;3.80;;;8.60;99.90;;;;;;6001106;23;20232;-70
2023/04/12 08:47:50;;;;;;;3.33;3.13;;;8.90;99.90;;;;;;5999453;23;20580;-71
2023/04/12 08:50:17;;;;;;;4.03;3.55;;;8.90;99.90;;;;;;6010523;23;20652;-69
2023/04/12 08:52:44;;;;;;;3.88;3.47;;;9.00;99.90;;;;;;6006947;23;20268;-70
2023/04/12 08:55:12;;;;;;;3.58;3.25;;;9.00;99.90;;;;;;6004197;23;20197;-70
2023/04/12 08:57:42;;;;;;;4.20;3.60;;;9.00;99.90;;;;;;6006146;23;20240;-70
2023/04/12 09:00:11;;;;;;;5.47;3.97;;;9.10;99.90;;;;;;5997777;23;20288;-70
2023/04/12 09:02:41;;;;;;;4.80;3.45;;;9.10;99.90;;;;;;5982532;23;20193;-70
2023/04/12 09:05:09;;;;;;;4.00;3.70;;;9.20;99.90;;;;;;5990454;23;20606;-70
2023/04/12 09:07:36;;;;;;;4.15;3.75;;;9.30;99.90;;;;;;5998212;23;20218;-70
2023/04/12 09:10:04;;;;;;;4.40;4.00;;;9.30;99.90;;;;;;6002106;23;20286;-71
2023/04/12 09:12:33;;;;;;;4.22;3.40;;;9.30;99.90;;;;;;6005839;23;20268;-71
2023/04/12 09:15:08;;;;;;;5.10;4.55;;;9.40;99.90;;;;;;6003287;23;20289;-70
2023/04/12 09:17:37;;;;;;;4.28;3.83;;;9.40;99.90;;;;;;5997611;23;20717;-71
2023/04/12 09:20:23;;;;;;;5.63;4.53;;;9.40;99.90;;;;;;5999008;23;20214;-71
2023/04/12 09:22:53;;;;;;;5.10;3.65;;;9.50;99.90;;;;;;6003215;23;20705;-71
2023/04/12 09:25:36;;;;;;;5.10;3.92;;;9.50;99.90;;;;;;6002053;23;20193;-70
2023/04/12 09:28:17;;;;;;;5.40;4.35;;;9.60;99.90;;;;;;5998339;23;20214;-70
2023/04/12 09:30:43;;;;;;;3.20;3.00;;;9.70;99.90;;;;;;5995316;23;20229;-70
2023/04/12 09:33:12;;;;;;;4.00;3.58;;;9.80;99.90;;;;;;6006422;23;20216;-71
2023/04/12 09:35:39;;;;;;;7.85;3.58;;;9.80;99.90;;;;;;6004349;23;20245;-70
2023/04/12 09:38:10;;;;;;;3.20;2.80;;;9.90;99.90;;;;;;6000443;23;20218;-70
2023/04/12 09:40:37;;;;;;;2.80;2.60;;;9.90;99.90;;;;;;6001479;23;20368;-71
2023/04/12 09:43:06;;;;;;;3.28;2.72;;;10.00;99.90;;;;;;5997101;23;20202;-70
2023/04/12 09:45:34;;;;;;;5.03;3.10;;;10.10;99.90;;;;;;6001147;23;20558;-70
2023/04/12 09:48:02;;;;;;;3.40;3.10;;;10.10;99.90;;;;;;6007036;23;20221;-71
2023/04/12 09:50:32;;;;;;;3.22;2.35;;;10.30;99.90;;;;;;5998105;23;20534;-71
2023/04/12 09:53:00;;;;;;;3.60;2.78;;;10.40;99.90;;;;;;6003612;23;20186;-71
2023/04/12 09:55:29;;;;;;;2.92;2.50;;;10.40;99.90;;;;;;6000173;23;20201;-71
2023/04/12 09:57:56;;;;;;;6.30;3.63;;;10.40;99.90;;;;;;6003134;23;20190;-71
2023/04/12 10:00:25;;;;;;;3.60;2.70;;;10.50;99.90;;;;;;6002403;23;20205;-78
2023/04/12 10:02:55;;;;;;;2.90;2.50;;;10.60;99.90;;;;;;5995974;23;20297;-72
2023/04/12 10:05:24;;;;;;;2.83;2.33;;;10.90;99.90;;;;;;5993457;23;20210;-71
2023/04/12 10:07:52;;;;;;;3.53;2.00;;;10.70;99.90;;;;;;5995832;23;20693;-85
2023/04/12 10:10:21;;;;;;;2.83;2.08;;;10.70;99.90;;;;;;6003118;23;20206;-73
2023/04/12 10:12:49;;;;;;;2.80;2.20;;;10.80;99.90;;;;;;5998529;23;20190;-71
2023/04/12 10:15:17;;;;;;;2.83;2.10;;;10.90;99.90;;;;;;5999963;23;20197;-69
2023/04/12 10:17:47;;;;;;;4.57;2.25;;;11.00;99.90;;;;;;5986919;23;20194;-70
2023/04/12 10:20:15;;;;;;;4.13;2.05;;;11.10;99.90;;;;;;5997961;23;20213;-71
2023/04/12 10:22:44;;;;;;;2.20;1.95;;;11.10;99.90;;;;;;5995184;23;20194;-70
2023/04/12 10:25:12;;;;;;;2.65;2.10;;;11.20;99.90;;;;;;6000816;23;20273;-71
2023/04/12 10:27:42;;;;;;;3.03;2.63;;;11.30;99.90;;;;;;6001152;23;20221;-71
2023/04/12 10:30:23;;;;;;;3.47;2.17;;;11.40;99.90;;;;;;6002016;23;20242;-71
2023/04/12 10:33:12;;;;;;;1.98;1.80;;;11.50;99.90;;;;;;6007930;23;20190;-71
2023/04/12 10:35:59;;;;;;;1.80;1.58;;;11.60;99.90;;;;;;5995505;23;20190;-70
2023/04/12 10:38:31;;;;;;;2.75;2.22;;;11.70;99.90;;;;;;6001244;23;20186;-70
2023/04/12 10:41:13;;;;;;;3.35;2.17;;;11.80;99.90;;;;;;5999120;23;20825;-70
2023/04/12 10:43:41;;;;;;;6.00;2.20;;;11.90;99.90;;;;;;5998747;23;20701;-70
2023/04/12 10:46:08;;;;;;;3.07;1.60;;;12.00;99.90;;;;;;5999683;23;20453;-69
2023/04/12 10:48:38;;;;;;;2.20;1.80;;;12.10;99.90;;;;;;5999564;23;20996;-70
2023/04/12 10:51:20;;;;;;;3.00;1.77;;;12.20;99.90;;;;;;6005905;23;20472;-68
2023/04/12 10:53:47;;;;;;;1.57;1.47;;;12.30;99.90;;;;;;5974220;23;20449;-68
2023/04/12 10:56:37;;;;;;;1.73;1.63;;;12.40;99.90;;;;;;5975832;23;20435;-68
2023/04/12 10:59:05;;;;;;;2.40;1.63;;;12.50;99.90;;;;;;5972982;23;20618;-70
2023/04/12 11:01:32;;;;;;;1.83;1.63;;;12.60;99.90;;;;;;5998338;23;20461;-71
2023/04/12 11:04:24;;;;;;;3.47;1.80;;;12.60;99.90;;;;;;5986699;23;20451;-68
2023/04/12 11:06:56;;;;;;;1.40;1.30;;;12.60;99.90;;;;;;5990056;23;20436;-70
2023/04/12 11:09:25;;;;;;;1.63;1.40;;;12.70;99.90;;;;;;5976424;23;20476;-71
2023/04/12 11:11:59;;;;;;;1.93;1.57;;;12.80;99.90;;;;;;5989796;23;20940;-71
2023/04/12 11:14:30;;;;;;;3.17;1.53;;;12.90;99.90;;;;;;5997458;23;20992;-70
2023/04/12 11:17:25;;;;;;;2.20;1.63;;;13.00;99.90;;;;;;6001642;23;20443;-71
2023/04/12 11:19:55;;;;;;;1.67;1.50;;;13.10;99.90;;;;;;5979337;23;20464;-71
2023/04/12 11:22:25;;;;;;;2.40;1.40;;;13.20;99.90;;;;;;5991339;23;20452;-71
2023/04/12 11:24:53;;;;;;;1.60;1.13;;;13.20;99.90;;;;;;6004576;23;20526;-72
2023/04/12 11:27:21;;;;;;;2.60;1.40;;;13.20;99.90;;;;;;6003809;23;20459;-71
2023/04/12 11:29:53;;;;;;;1.50;1.40;;;13.20;99.90;;;;;;6007139;23;21105;-71
2023/04/12 11:32:21;;;;;;;1.50;1.40;;;13.20;99.90;;;;;;6001465;23;20430;-71
2023/04/12 11:34:49;;;;;;;2.50;1.23;;;13.10;99.90;;;;;;5998497;23;20459;-70
2023/04/12 11:37:19;;;;;;;2.63;1.40;;;13.20;99.90;;;;;;5993659;23;20439;-70
2023/04/12 11:39:47;;;;;;;1.87;1.40;;;13.20;99.90;;;;;;6000363;23;20455;-70
2023/04/12 11:42:15;;;;;;;1.47;1.37;;;13.20;99.90;;;;;;5999803;23;20523;-70
2023/04/12 11:44:44;;;;;;;2.00;1.50;;;13.40;99.90;;;;;;6000476;23;20452;-71
2023/04/12 11:47:16;;;;;;;1.73;1.30;;;13.50;99.90;;;;;;6001021;23;20489;-70
2023/04/12 11:49:44;;;;;;;1.60;1.30;;;13.70;99.90;;;;;;5998779;23;20476;-70
2023/04/12 11:52:12;;;;;;;1.30;1.20;;;13.80;99.90;;;;;;6000044;23;20438;-70
2023/04/12 11:54:44;;;;;;;1.87;1.37;;;13.90;99.90;;;;;;6001487;23;20853;-70
2023/04/12 11:57:13;;;;;;;1.63;1.20;;;14.00;99.90;;;;;;5998026;23;20444;-70
2023/04/12 11:59:42;;;;;;;1.47;1.20;;;14.10;99.90;;;;;;6003326;23;20840;-70
2023/04/12 12:02:09;;;;;;;1.13;1.03;;;14.10;99.90;;;;;;5997750;23;20437;-71
2023/04/12 12:04:37;;;;;;;2.40;1.30;;;14.10;99.90;;;;;;5996883;23;21007;-71
2023/04/12 12:07:06;;;;;;;2.43;1.27;;;14.10;99.90;;;;;;5999662;23;20522;-71
2023/04/12 12:09:33;;;;;;;2.03;1.10;;;14.30;99.90;;;;;;6000978;23;20483;-71
2023/04/12 12:12:02;;;;;;;1.67;1.37;;;14.00;99.90;;;;;;6002141;23;20440;-71
2023/04/12 12:14:29;;;;;;;1.30;1.00;;;14.00;99.90;;;;;;5996263;23;20447;-71
2023/04/12 12:16:58;;;;;;;1.40;1.00;;;14.00;99.90;;;;;;5998333;23;20448;-71
2023/04/12 12:19:28;;;;;;;3.93;1.03;;;14.00;99.90;;;;;;6004207;23;20547;-71
2023/04/12 12:22:10;;;;;;;2.70;1.43;;;14.00;99.90;;;;;;6000710;23;20453;-70
2023/04/12 12:24:37;;;;;;;1.57;0.93;;;14.00;99.90;;;;;;5999098;23;20531;-71
2023/04/12 12:27:05;;;;;;;1.23;1.13;;;14.10;99.90;;;;;;5998036;23;20436;-71
2023/04/12 12:29:36;;;;;;;2.90;1.47;;;14.10;99.90;;;;;;5999771;23;20479;-70
2023/04/12 12:32:10;;;;;;;2.70;1.00;;;14.30;99.90;;;;;;5999392;23;20467;-70
2023/04/12 12:34:37;;;;;;;1.70;1.03;;;14.30;99.90;;;;;;5996567;23;20451;-71
2023/04/12 12:37:09;;;;;;;1.70;1.10;;;14.30;99.90;;;;;;6002323;23;20462;-70
2023/04/12 12:39:36;;;;;;;1.33;0.90;;;14.40;99.90;;;;;;6003406;23;21270;-73
2023/04/12 12:42:04;;;;;;;1.30;1.17;;;14.10;99.90;;;;;;5996856;23;20447;-70
2023/04/12 12:44:33;;;;;;;1.27;0.90;;;14.10;99.90;;;;;;6002787;23;20428;-70
2023/04/12 12:47:01;;;;;;;1.33;0.97;;;14.10;99.90;;;;;;5998581;23;20457;-71
2023/04/12 12:49:29;;;;;;;1.60;1.30;;;14.10;99.90;;;;;;6009296;23;20507;-71
2023/04/12 12:51:57;;;;;;;1.73;0.97;;;14.20;99.90;;;;;;5987521;23;20445;-71
2023/04/12 12:54:24;;;;;;;1.70;1.00;;;14.30;99.90;;;;;;5989165;23;20834;-72
2023/04/12 12:56:51;;;;;;;1.30;1.00;;;14.40;99.90;;;;;;5989260;23;20433;-71
2023/04/12 12:59:19;;;;;;;1.80;1.00;;;14.60;99.90;;;;;;5986864;23;20547;-70
2023/04/12 13:01:47;;;;;;;1.47;1.20;;;14.60;99.90;;;;;;5989457;23;20433;-70
2023/04/12 13:04:14;;;;;;;1.20;1.00;;;14.50;99.90;;;;;;6003363;23;20434;-70